createdAt,value
2022-09-12T00:00:15.850Z,1.67
2022-09-12T00:02:42.499Z,1.52
2022-09-12T00:05:09.209Z,1.88
2022-09-12T00:07:35.846Z,1.65
2022-09-12T00:10:02.587Z,1.88
2022-09-12T00:12:29.257Z,1.80
2022-09-12T00:14:55.884Z,1.63
2022-09-12T00:17:22.518Z,1.80
2022-09-12T00:19:49.144Z,1.50
2022-09-12T00:22:15.820Z,1.50
2022-09-12T00:24:42.537Z,1.70
2022-09-12T00:27:09.296Z,1.80
2022-09-12T00:29:35.962Z,1.90
2022-09-12T00:32:02.743Z,1.70
2022-09-12T00:34:29.386Z,1.70
2022-09-12T00:36:56.354Z,1.70
2022-09-12T00:39:22.988Z,2.00
2022-09-12T00:41:50.114Z,1.90
2022-09-12T00:44:16.767Z,1.60
2022-09-12T00:46:52.454Z,1.70
2022-09-12T00:49:27.175Z,1.65
2022-09-12T00:52:00.006Z,1.70
2022-09-12T00:54:30.390Z,1.73
2022-09-12T00:57:03.579Z,1.50
2022-09-12T00:59:43.504Z,1.85
2022-09-12T01:02:11.123Z,1.50
2022-09-12T01:04:40.931Z,1.48
2022-09-12T01:07:08.771Z,1.67
2022-09-12T01:09:38.052Z,1.50
2022-09-12T01:12:06.105Z,1.58
2022-09-12T01:14:32.938Z,1.40
2022-09-12T01:16:59.711Z,1.50
2022-09-12T01:19:46.389Z,1.40
2022-09-12T01:22:35.287Z,1.48
2022-09-12T01:25:17.825Z,1.50
2022-09-12T01:28:03.965Z,1.45
2022-09-12T01:30:42.999Z,1.50
2022-09-12T01:33:46.885Z,1.50
2022-09-12T01:36:38.340Z,1.67
2022-09-12T01:39:31.563Z,1.80
2022-09-12T01:42:13.782Z,1.65
2022-09-12T01:44:57.248Z,1.42
2022-09-12T01:47:45.486Z,1.48
2022-09-12T01:50:22.866Z,1.42
2022-09-12T01:52:54.557Z,1.60
2022-09-12T01:55:25.201Z,1.42
2022-09-12T01:57:57.530Z,1.55
2022-09-12T02:00:24.789Z,1.45
2022-09-12T02:02:58.063Z,1.70
2022-09-12T02:05:39.311Z,1.15
2022-09-12T02:08:30.013Z,1.52
2022-09-12T02:11:01.411Z,1.40
2022-09-12T02:14:23.330Z,1.60
2022-09-12T02:16:55.384Z,1.30
2022-09-12T02:19:28.101Z,1.60
2022-09-12T02:21:58.504Z,1.50
2022-09-12T02:24:31.886Z,1.60
2022-09-12T02:27:07.574Z,1.50
2022-09-12T02:29:34.208Z,1.45
2022-09-12T02:32:24.328Z,1.38
2022-09-12T02:35:07.478Z,1.70
2022-09-12T02:37:46.117Z,1.47
2022-09-12T02:40:13.751Z,1.33
2022-09-12T02:42:40.570Z,1.52
2022-09-12T02:45:08.022Z,1.60
2022-09-12T02:47:39.391Z,1.33
2022-09-12T02:50:08.129Z,1.52
2022-09-12T02:52:36.071Z,1.52
2022-09-12T02:55:05.313Z,1.58
2022-09-12T02:57:32.183Z,1.60
2022-09-12T03:00:01.741Z,1.83
2022-09-12T03:02:56.156Z,1.20
2022-09-12T03:08:32.396Z,1.40
2022-09-12T03:11:24.955Z,1.53
2022-09-12T03:14:01.994Z,1.30
2022-09-12T03:16:31.865Z,1.35
2022-09-12T03:19:06.326Z,1.25
2022-09-12T03:21:59.081Z,1.70
2022-09-12T03:24:53.425Z,1.50
2022-09-12T03:30:08.170Z,1.20
2022-09-12T03:32:41.422Z,1.27
2022-09-12T03:35:08.541Z,1.30
2022-09-12T03:37:38.085Z,1.20
2022-09-12T03:40:06.389Z,1.20
2022-09-12T03:42:33.392Z,1.13
2022-09-12T03:45:00.093Z,1.10
2022-09-12T03:47:26.799Z,1.13
2022-09-12T03:49:53.440Z,1.20
2022-09-12T03:52:20.189Z,1.48
2022-09-12T03:54:46.767Z,1.08
2022-09-12T03:57:13.553Z,1.27
2022-09-12T03:59:40.162Z,1.00
2022-09-12T04:02:06.938Z,1.23
2022-09-12T04:04:33.629Z,1.25
2022-09-12T04:07:00.161Z,1.45
2022-09-12T04:09:26.680Z,1.20
2022-09-12T04:11:53.264Z,1.33
2022-09-12T04:14:19.777Z,1.30
2022-09-12T04:16:46.380Z,1.20
2022-09-12T04:19:12.979Z,1.13
2022-09-12T04:21:40.088Z,1.40
2022-09-12T04:24:06.747Z,1.40
2022-09-12T04:26:33.376Z,1.40
2022-09-12T04:29:00.054Z,1.80
2022-09-12T04:31:26.920Z,1.30
2022-09-12T04:33:55.471Z,1.27
2022-09-12T04:36:22.903Z,1.25
2022-09-12T04:38:50.497Z,1.30
2022-09-12T04:41:23.254Z,1.40
2022-09-12T04:43:58.280Z,1.33
2022-09-12T04:46:26.482Z,1.40
2022-09-12T04:48:56.626Z,1.08
2022-09-12T04:51:29.952Z,1.40
2022-09-12T04:54:02.007Z,1.47
2022-09-12T04:56:29.386Z,1.10
2022-09-12T04:59:00.850Z,1.33
2022-09-12T05:01:29.790Z,1.50
2022-09-12T05:03:57.945Z,1.20
2022-09-12T05:06:28.148Z,1.20
2022-09-12T05:08:56.129Z,1.40
2022-09-12T05:11:32.991Z,1.30
2022-09-12T05:14:08.296Z,1.25
2022-09-12T05:16:34.928Z,1.23
2022-09-12T05:19:01.563Z,1.40
2022-09-12T05:21:28.326Z,1.67
2022-09-12T05:23:57.381Z,1.35
2022-09-12T05:26:24.373Z,1.05
2022-09-12T05:28:52.155Z,1.20
2022-09-12T05:31:26.797Z,1.40
2022-09-12T05:33:55.091Z,1.42
2022-09-12T05:36:29.815Z,1.17
2022-09-12T05:38:57.562Z,1.30
2022-09-12T05:41:26.180Z,1.38
2022-09-12T05:43:54.344Z,1.40
2022-09-12T05:46:23.382Z,1.40
2022-09-12T05:48:55.106Z,1.35
2022-09-12T05:51:28.214Z,1.30
2022-09-12T05:53:57.742Z,1.23
2022-09-12T05:56:30.124Z,1.70
2022-09-12T05:58:58.523Z,1.50
2022-09-12T06:01:26.213Z,2.35
2022-09-12T06:03:55.744Z,2.20
2022-09-12T06:06:25.304Z,1.60
2022-09-12T06:08:54.084Z,1.73
2022-09-12T06:11:24.509Z,1.52
2022-09-12T06:13:51.151Z,1.50
2022-09-12T06:16:22.842Z,1.17
2022-09-12T06:18:54.537Z,1.33
2022-09-12T06:21:22.617Z,1.48
2022-09-12T06:23:49.627Z,1.73
2022-09-12T06:26:18.037Z,1.80
2022-09-12T06:28:45.280Z,1.55
2022-09-12T06:31:14.435Z,1.25
2022-09-12T06:33:43.877Z,1.38
2022-09-12T06:36:21.593Z,1.40
2022-09-12T06:38:51.435Z,1.58
2022-09-12T06:41:17.971Z,1.40
2022-09-12T06:43:44.515Z,1.30
2022-09-12T06:46:13.194Z,1.30
2022-09-12T06:48:42.071Z,1.45
2022-09-12T06:51:15.087Z,1.58
2022-09-12T06:53:42.415Z,1.70
2022-09-12T06:56:14.378Z,1.50
2022-09-12T06:58:41.903Z,1.55
2022-09-12T07:01:15.732Z,1.38
2022-09-12T07:06:14.026Z,1.50
2022-09-12T07:08:41.198Z,1.90
2022-09-12T07:11:15.257Z,1.65
2022-09-12T07:13:43.667Z,1.98
2022-09-12T07:16:13.822Z,1.80
2022-09-12T07:18:43.339Z,1.58
2022-09-12T07:21:14.991Z,1.70
2022-09-12T07:23:42.832Z,1.80
2022-09-12T07:26:13.983Z,2.60
2022-09-12T07:28:40.830Z,4.90
2022-09-12T07:31:07.486Z,4.28
2022-09-12T07:33:34.397Z,2.17
2022-09-12T07:36:05.814Z,1.58
2022-09-12T07:38:32.489Z,1.80
2022-09-12T07:40:59.168Z,1.73
2022-09-12T07:43:25.749Z,1.70
2022-09-12T07:45:56.539Z,1.73
2022-09-12T07:48:23.520Z,1.63
2022-09-12T07:51:04.937Z,1.40
2022-09-12T07:53:33.893Z,1.45
2022-09-12T07:56:00.901Z,1.30
2022-09-12T07:58:27.514Z,1.30
2022-09-12T08:00:54.135Z,4.10
2022-09-12T08:03:20.980Z,1.23
2022-09-12T08:05:47.599Z,0.95
2022-09-12T08:08:14.123Z,1.20
2022-09-12T08:10:40.698Z,1.38
2022-09-12T08:13:10.651Z,1.40
2022-09-12T08:15:37.456Z,1.27
2022-09-12T08:18:04.149Z,1.25
2022-09-12T08:20:31.040Z,1.50
2022-09-12T08:22:57.577Z,1.05
2022-09-12T08:25:24.219Z,1.27
2022-09-12T08:27:50.829Z,1.50
2022-09-12T08:30:18.452Z,1.23
2022-09-12T08:32:45.088Z,1.40
2022-09-12T08:35:12.076Z,1.40
2022-09-12T08:37:38.612Z,1.20
2022-09-12T08:40:08.335Z,1.10
2022-09-12T08:42:54.264Z,1.20
2022-09-12T08:45:32.990Z,0.98
2022-09-12T08:48:03.412Z,1.50
2022-09-12T08:50:30.179Z,1.38
2022-09-12T08:53:04.623Z,1.10
2022-09-12T08:55:37.645Z,1.00
2022-09-12T08:58:22.818Z,1.30
2022-09-12T09:01:16.008Z,1.58
2022-09-12T09:04:18.090Z,1.05
2022-09-12T09:06:53.488Z,0.93
2022-09-12T09:09:20.247Z,0.95
2022-09-12T09:12:10.035Z,0.90
2022-09-12T09:14:55.365Z,0.98
2022-09-12T09:17:25.409Z,0.75
2022-09-12T09:20:30.832Z,0.93
2022-09-12T09:23:15.365Z,0.80
2022-09-12T09:26:07.954Z,1.08
2022-09-12T09:28:54.004Z,0.80
2022-09-12T09:31:23.604Z,0.90
2022-09-12T09:33:54.167Z,0.90
2022-09-12T09:36:32.780Z,1.10
2022-09-12T09:39:25.056Z,0.90
2022-09-12T09:45:30.063Z,0.80
2022-09-12T09:48:08.591Z,0.90
2022-09-12T09:50:36.060Z,0.82
2022-09-12T09:53:03.831Z,0.90
2022-09-12T09:55:40.035Z,0.70
2022-09-12T09:58:06.941Z,0.90
2022-09-12T10:00:35.888Z,0.80
2022-09-12T10:03:14.635Z,0.80
2022-09-12T10:05:53.340Z,0.75
2022-09-12T10:08:26.506Z,0.82
2022-09-12T10:11:07.223Z,1.00
2022-09-12T10:13:43.397Z,0.70
2022-09-12T10:16:25.256Z,0.90
2022-09-12T10:19:24.844Z,0.70
2022-09-12T10:21:54.570Z,0.80
2022-09-12T10:24:41.814Z,0.90
2022-09-12T10:27:15.876Z,0.90
2022-09-12T10:29:51.876Z,0.98
2022-09-12T10:32:31.040Z,0.90
2022-09-12T10:35:04.306Z,1.10
2022-09-12T10:37:34.371Z,1.13
2022-09-12T10:40:02.397Z,1.10
2022-09-12T10:42:51.696Z,1.30
2022-09-12T10:45:29.046Z,1.25
2022-09-12T10:47:59.149Z,1.20
2022-09-12T10:50:27.336Z,1.20
2022-09-12T10:52:55.049Z,1.13
2022-09-12T10:55:29.722Z,1.27
2022-09-12T10:58:28.370Z,1.40
2022-09-12T11:01:02.114Z,1.20
2022-09-12T11:03:51.837Z,1.30
2022-09-12T11:06:26.550Z,1.40
2022-09-12T11:09:35.835Z,1.40
2022-09-12T11:12:13.721Z,1.30
2022-09-12T11:14:58.714Z,1.20
2022-09-12T11:17:25.432Z,1.30
2022-09-12T11:20:50.800Z,1.20
2022-09-12T11:23:17.425Z,1.15
2022-09-12T11:26:19.026Z,1.33
2022-09-12T11:29:00.671Z,1.30
2022-09-12T11:32:01.199Z,1.40
2022-09-12T11:34:57.204Z,1.48
2022-09-12T11:37:50.155Z,1.20
2022-09-12T11:40:20.628Z,1.40
2022-09-12T11:42:49.609Z,1.25
2022-09-12T11:45:22.657Z,1.30
2022-09-12T11:47:55.447Z,1.40
2022-09-12T11:50:26.956Z,1.30
2022-09-12T11:53:00.242Z,1.20
2022-09-12T11:55:32.544Z,1.55
2022-09-12T11:57:59.466Z,1.50
2022-09-12T12:00:36.461Z,1.40
2022-09-12T12:03:07.246Z,1.15
2022-09-12T12:06:12.728Z,1.35
2022-09-12T12:08:43.146Z,1.30
2022-09-12T12:11:12.201Z,1.38
2022-09-12T12:14:07.909Z,1.33
2022-09-12T12:16:38.806Z,1.40
2022-09-12T12:19:14.513Z,1.17
2022-09-12T12:21:44.697Z,1.02
2022-09-12T12:24:21.186Z,1.13
2022-09-12T12:26:53.569Z,1.33
2022-09-12T12:29:20.143Z,1.30
2022-09-12T12:31:58.761Z,1.25
2022-09-12T12:34:29.452Z,1.50
2022-09-12T12:36:56.083Z,1.20
2022-09-12T12:39:34.857Z,1.50
2022-09-12T12:42:02.130Z,1.00
2022-09-12T12:44:49.506Z,1.20
2022-09-12T12:47:25.333Z,1.30
2022-09-12T12:50:12.253Z,1.00
2022-09-12T12:53:01.960Z,1.10
2022-09-12T12:55:34.243Z,1.10
2022-09-12T12:58:03.038Z,0.80
2022-09-12T13:00:36.579Z,0.88
2022-09-12T13:06:01.091Z,0.90
2022-09-12T13:08:33.519Z,0.90
2022-09-12T13:11:00.444Z,0.70
2022-09-12T13:13:53.502Z,1.00
2022-09-12T13:16:56.910Z,0.97
2022-09-12T13:19:29.365Z,0.93
2022-09-12T13:21:57.380Z,1.00
2022-09-12T13:24:24.087Z,0.90
2022-09-12T13:26:50.967Z,0.88
2022-09-12T13:29:20.955Z,0.80
2022-09-12T13:31:51.628Z,0.88
2022-09-12T13:34:26.041Z,1.00
2022-09-12T13:37:17.619Z,0.80
2022-09-12T13:39:49.811Z,0.93
2022-09-12T13:42:26.274Z,0.98
2022-09-12T13:45:01.897Z,0.98
2022-09-12T13:47:35.509Z,1.10
2022-09-12T13:50:05.166Z,0.90
2022-09-12T13:52:38.068Z,0.82
2022-09-12T13:55:24.095Z,0.98
2022-09-12T13:58:01.260Z,0.77
2022-09-12T14:00:30.190Z,0.80
2022-09-12T14:03:16.950Z,0.93
2022-09-12T14:05:48.101Z,1.10
2022-09-12T14:08:15.394Z,0.90
2022-09-12T14:10:45.026Z,0.95
2022-09-12T14:13:16.616Z,1.10
2022-09-12T14:15:50.135Z,0.90
2022-09-12T14:18:28.533Z,0.95
2022-09-12T14:21:00.651Z,1.00
2022-09-12T14:23:30.782Z,0.80
2022-09-12T14:26:00.183Z,1.00
2022-09-12T14:28:30.456Z,1.02
2022-09-12T14:31:06.904Z,1.08
2022-09-12T14:33:50.148Z,0.90
2022-09-12T14:36:22.198Z,0.90
2022-09-12T14:38:56.219Z,0.93
2022-09-12T14:41:29.926Z,1.00
2022-09-12T14:44:00.336Z,0.60
2022-09-12T14:46:32.744Z,0.85
2022-09-12T14:49:09.242Z,0.60
2022-09-12T14:51:40.037Z,0.85
2022-09-12T14:54:06.776Z,0.85
2022-09-12T14:56:53.441Z,0.68
2022-09-12T14:59:35.040Z,0.70
2022-09-12T15:02:13.790Z,0.75
2022-09-12T15:04:54.642Z,0.80
2022-09-12T15:07:36.553Z,0.80
2022-09-12T15:10:14.280Z,0.70
2022-09-12T15:12:40.913Z,0.73
2022-09-12T15:15:19.428Z,0.80
2022-09-12T15:17:46.176Z,0.70
2022-09-12T15:20:13.860Z,0.68
2022-09-12T15:22:41.862Z,0.90
2022-09-12T15:25:12.451Z,1.15
2022-09-12T15:27:42.425Z,1.38
2022-09-12T15:30:10.370Z,1.60
2022-09-12T15:32:37.442Z,1.60
2022-09-12T15:35:04.197Z,1.50
2022-09-12T15:37:31.110Z,1.40
2022-09-12T15:39:57.967Z,1.38
2022-09-12T15:42:33.253Z,1.67
2022-09-12T15:45:02.491Z,1.75
2022-09-12T15:47:29.514Z,1.77
2022-09-12T15:49:56.087Z,1.60
2022-09-12T15:52:22.648Z,1.50
2022-09-12T15:54:49.197Z,1.65
2022-09-12T15:57:15.731Z,1.70
2022-09-12T15:59:42.327Z,1.83
2022-09-12T16:02:11.464Z,1.63
2022-09-12T16:04:38.152Z,1.45
2022-09-12T16:07:04.781Z,1.63
2022-09-12T16:09:31.375Z,1.50
2022-09-12T16:11:58.029Z,1.50
2022-09-12T16:14:24.599Z,1.67
2022-09-12T16:16:55.998Z,1.80
2022-09-12T16:19:28.669Z,1.60
2022-09-12T16:21:55.214Z,1.73
2022-09-12T16:24:21.901Z,1.52
2022-09-12T16:26:48.508Z,1.38
2022-09-12T16:29:15.457Z,1.42
2022-09-12T16:31:45.500Z,1.40
2022-09-12T16:34:12.246Z,1.75
2022-09-12T16:36:38.785Z,1.48
2022-09-12T16:39:06.478Z,1.70
2022-09-12T16:41:33.037Z,1.50
2022-09-12T16:43:59.658Z,1.63
2022-09-12T16:46:28.953Z,1.85
2022-09-12T16:48:57.543Z,1.50
2022-09-12T16:51:31.233Z,1.70
2022-09-12T16:53:58.423Z,1.90
2022-09-12T16:56:25.589Z,1.70
2022-09-12T16:58:52.826Z,1.83
2022-09-12T17:01:21.903Z,1.75
2022-09-12T17:03:53.148Z,1.63
2022-09-12T17:06:20.170Z,1.65
2022-09-12T17:08:49.514Z,2.05
2022-09-12T17:11:19.428Z,1.83
2022-09-12T17:14:09.976Z,1.65
2022-09-12T17:16:40.232Z,1.58
2022-09-12T17:19:08.551Z,1.48
2022-09-12T17:21:35.651Z,1.60
2022-09-12T17:24:03.407Z,1.50
2022-09-12T17:26:30.064Z,1.88
2022-09-12T17:28:56.671Z,5.30
2022-09-12T17:31:23.315Z,3.47
2022-09-12T17:33:50.062Z,2.20
2022-09-12T17:36:17.984Z,1.85
2022-09-12T17:38:46.350Z,1.70
2022-09-12T17:41:17.701Z,2.00
2022-09-12T17:43:46.106Z,2.15
2022-09-12T17:46:12.869Z,1.90
2022-09-12T17:48:39.465Z,1.60
2022-09-12T17:51:10.330Z,1.90
2022-09-12T17:53:37.265Z,2.00
2022-09-12T17:56:05.230Z,1.88
2022-09-12T17:58:32.871Z,2.03
2022-09-12T18:01:31.946Z,1.90
2022-09-12T18:04:03.624Z,2.25
2022-09-12T18:06:32.432Z,1.80
2022-09-12T18:09:04.736Z,2.30
2022-09-12T18:11:32.170Z,2.20
2022-09-12T18:13:59.813Z,1.90
2022-09-12T18:16:26.903Z,1.90
2022-09-12T18:18:53.657Z,2.17
2022-09-12T18:21:20.582Z,2.65
2022-09-12T18:23:47.261Z,2.30
2022-09-12T18:26:14.558Z,2.42
2022-09-12T18:28:44.156Z,2.05
2022-09-12T18:31:14.134Z,2.35
2022-09-12T18:33:41.073Z,2.13
2022-09-12T18:36:10.577Z,2.30
2022-09-12T18:38:38.058Z,2.17
2022-09-12T18:41:06.755Z,2.10
2022-09-12T18:43:33.747Z,2.28
2022-09-12T18:46:08.752Z,1.98
2022-09-12T18:48:36.219Z,2.20
2022-09-12T18:51:06.794Z,2.17
2022-09-12T18:53:34.144Z,2.13
2022-09-12T18:56:02.416Z,2.20
2022-09-12T18:58:28.984Z,2.30
2022-09-12T19:00:55.860Z,1.88
2022-09-12T19:03:22.899Z,2.00
2022-09-12T19:05:49.428Z,2.50
2022-09-12T19:08:15.987Z,2.05
2022-09-12T19:10:42.596Z,2.00
2022-09-12T19:13:09.140Z,2.40
2022-09-12T19:15:39.753Z,2.28
2022-09-12T19:18:06.322Z,2.33
2022-09-12T19:20:36.048Z,2.17
2022-09-12T19:23:02.662Z,2.13
2022-09-12T19:25:29.366Z,2.30
2022-09-12T19:27:56.013Z,2.15
2022-09-12T19:30:22.559Z,2.13
2022-09-12T19:32:49.093Z,2.55
2022-09-12T19:35:15.821Z,2.63
2022-09-12T19:37:42.462Z,2.60
2022-09-12T19:40:09.484Z,2.22
2022-09-12T19:42:36.100Z,1.95
2022-09-12T19:45:02.635Z,2.45
2022-09-12T19:47:29.525Z,2.30
2022-09-12T19:49:56.027Z,2.47
2022-09-12T19:52:22.615Z,2.20
2022-09-12T19:54:49.169Z,2.38
2022-09-12T19:57:15.768Z,2.25
2022-09-12T19:59:42.979Z,2.15
2022-09-12T20:02:09.596Z,2.50
2022-09-12T20:04:36.870Z,2.38
2022-09-12T20:07:03.524Z,2.63
2022-09-12T20:09:30.323Z,2.20
2022-09-12T20:11:56.877Z,2.28
2022-09-12T20:14:23.559Z,2.38
2022-09-12T20:16:50.101Z,2.20
2022-09-12T20:19:16.714Z,2.08
2022-09-12T20:21:43.340Z,3.72
2022-09-12T20:24:12.751Z,10.95
2022-09-12T20:26:40.284Z,8.35
2022-09-12T20:29:08.166Z,6.05
2022-09-12T20:31:36.809Z,2.10
2022-09-12T20:34:04.412Z,2.38
2022-09-12T20:36:31.042Z,5.47
2022-09-12T20:39:02.719Z,2.00
2022-09-12T20:41:32.197Z,2.10
2022-09-12T20:43:59.227Z,2.95
2022-09-12T20:46:27.993Z,3.17
2022-09-12T20:48:56.377Z,3.00
2022-09-12T20:51:26.894Z,2.78
2022-09-12T20:53:54.859Z,2.13
2022-09-12T20:56:23.084Z,2.70
2022-09-12T20:58:51.297Z,2.40
2022-09-12T21:01:24.053Z,2.50
2022-09-12T21:03:51.857Z,2.60
2022-09-12T21:06:20.281Z,2.28
2022-09-12T21:08:49.593Z,2.60
2022-09-12T21:11:18.574Z,2.42
2022-09-12T21:13:46.083Z,2.65
2022-09-12T21:16:16.170Z,2.50
2022-09-12T21:18:47.265Z,2.65
2022-09-12T21:21:15.762Z,2.33
2022-09-12T21:23:42.653Z,2.42
2022-09-12T21:26:09.997Z,2.45
2022-09-12T21:28:36.798Z,2.30
2022-09-12T21:31:03.930Z,2.33
2022-09-12T21:33:30.662Z,2.40
2022-09-12T21:36:04.791Z,2.70
2022-09-12T21:38:32.213Z,2.40
2022-09-12T21:41:07.455Z,2.60
2022-09-12T21:43:37.048Z,2.80
2022-09-12T21:46:04.731Z,2.58
2022-09-12T21:48:31.941Z,2.47
2022-09-12T21:50:58.799Z,2.88
2022-09-12T21:53:25.819Z,2.58
2022-09-12T21:55:52.424Z,2.40
2022-09-12T21:58:19.628Z,2.85
2022-09-12T22:00:46.304Z,2.60
2022-09-12T22:03:12.891Z,2.42
2022-09-12T22:05:43.191Z,2.17
2022-09-12T22:08:11.238Z,2.40
2022-09-12T22:10:38.630Z,2.50
2022-09-12T22:13:05.458Z,2.53
2022-09-12T22:15:40.855Z,2.72
2022-09-12T22:18:07.835Z,2.53
2022-09-12T22:20:34.421Z,2.20
2022-09-12T22:23:23.825Z,2.53
2022-09-12T22:25:54.276Z,2.20
2022-09-12T22:28:21.320Z,2.58
2022-09-12T22:30:48.644Z,2.13
2022-09-12T22:33:15.221Z,1.95
2022-09-12T22:35:42.537Z,2.30
2022-09-12T22:38:09.351Z,2.33
2022-09-12T22:40:35.993Z,2.40
2022-09-12T22:43:02.656Z,2.33
2022-09-12T22:45:32.433Z,2.55
2022-09-12T22:48:00.731Z,2.30
2022-09-12T22:50:27.721Z,2.50
2022-09-12T22:52:54.323Z,2.42
2022-09-12T22:55:20.961Z,2.40
2022-09-12T22:57:47.602Z,2.20
2022-09-12T23:00:14.951Z,2.20
2022-09-12T23:02:41.591Z,2.20
2022-09-12T23:05:08.555Z,2.30
2022-09-12T23:07:35.693Z,2.17
2022-09-12T23:10:02.277Z,2.60
2022-09-12T23:12:28.956Z,2.40
2022-09-12T23:14:55.630Z,2.10
2022-09-12T23:17:22.208Z,2.25
2022-09-12T23:19:48.779Z,2.30
2022-09-12T23:22:15.364Z,2.33
2022-09-12T23:24:41.929Z,2.13
2022-09-12T23:27:08.971Z,2.33
2022-09-12T23:29:35.656Z,2.30
2022-09-12T23:32:03.605Z,2.63
2022-09-12T23:34:30.957Z,2.15
2022-09-12T23:36:57.686Z,2.38
2022-09-12T23:39:24.282Z,2.42
2022-09-12T23:41:51.067Z,2.35
2022-09-12T23:44:17.797Z,2.33
2022-09-12T23:46:44.411Z,2.30
2022-09-12T23:49:11.083Z,2.40
2022-09-12T23:51:37.616Z,2.30
2022-09-12T23:54:04.449Z,2.33
2022-09-12T23:56:31.027Z,3.58
2022-09-12T23:58:57.640Z,2.33
